Time,TemperatureF,DewpointF,PressureIn,WindDirection,WindDirectionDegrees,WindSpeedMPH,WindSpeedGustMPH,Humidity,HourlyPrecipIn,Conditions,Clouds,dailyrainin,SolarRadiationWatts/m^2,SoftwareType,DateUTC
2013-03-17 00:02:00,11.0,3.0,-100.00,North,2,6.0,17.0,70,0.00,,,0.08,1.000000,,2013-03-17 05:02:00,
2013-03-17 00:12:00,11.0,3.0,-100.00,North,2,6.0,17.0,70,0.00,,,0.08,1.000000,,2013-03-17 05:12:00,
2013-03-17 00:22:00,11.0,3.0,-100.00,North,2,6.0,17.0,70,0.00,,,0.08,1.000000,,2013-03-17 05:22:00,
2013-03-17 00:32:00,11.0,3.0,-100.00,North,2,6.0,17.0,70,0.00,,,0.08,1.000000,,2013-03-17 05:32:00,
2013-03-17 01:02:00,9.0,1.0,-100.00,North,4,6.0,13.0,70,0.00,,,0.08,1.000000,,2013-03-17 06:02:00,
2013-03-17 01:12:00,9.0,1.0,-100.00,North,4,6.0,13.0,70,0.00,,,0.08,1.000000,,2013-03-17 06:12:00,
2013-03-17 01:22:00,9.0,1.0,-100.00,North,4,6.0,13.0,70,0.00,,,0.08,1.000000,,2013-03-17 06:22:00,
2013-03-17 01:32:00,9.0,1.0,-100.00,North,4,6.0,13.0,70,0.00,,,0.08,1.000000,,2013-03-17 06:32:00,
2013-03-17 02:02:00,8.0,1.0,-100.00,North,6,4.0,12.0,73,0.00,,,0.08,1.000000,,2013-03-17 07:02:00,
2013-03-17 02:12:00,8.0,1.0,-100.00,North,6,4.0,12.0,73,0.00,,,0.08,1.000000,,2013-03-17 07:12:00,
2013-03-17 02:22:00,8.0,1.0,-100.00,North,6,4.0,12.0,73,0.00,,,0.08,1.000000,,2013-03-17 07:22:00,
2013-03-17 02:32:00,8.0,1.0,-100.00,North,6,4.0,12.0,73,0.00,,,0.08,1.000000,,2013-03-17 07:32:00,
2013-03-17 03:03:00,3.0,-3.0,-100.00,ENE,68,0.0,4.0,76,0.00,,,0.08,1.000000,,2013-03-17 08:03:00,
2013-03-17 03:13:00,3.0,-3.0,-100.00,ENE,68,0.0,4.0,76,0.00,,,0.08,1.000000,,2013-03-17 08:13:00,
2013-03-17 03:22:00,3.0,-3.0,-100.00,ENE,68,0.0,4.0,76,0.00,,,0.08,1.000000,,2013-03-17 08:22:00,
2013-03-17 03:32:00,3.0,-3.0,-100.00,ENE,68,0.0,4.0,76,0.00,,,0.08,1.000000,,2013-03-17 08:32:00,
2013-03-17 04:03:00,-4.0,-10.0,-100.00,SSW,207,0.0,2.0,75,0.00,,,0.08,1.000000,,2013-03-17 09:03:00,
2013-03-17 04:12:00,-4.0,-10.0,-100.00,SSW,207,0.0,2.0,75,0.00,,,0.08,1.000000,,2013-03-17 09:12:00,
2013-03-17 04:22:00,-4.0,-10.0,-100.00,SSW,207,0.0,2.0,75,0.00,,,0.08,1.000000,,2013-03-17 09:22:00,
2013-03-17 04:32:00,-4.0,-10.0,-100.00,SSW,207,0.0,2.0,75,0.00,,,0.08,1.000000,,2013-03-17 09:32:00,
2013-03-17 05:03:00,-8.0,-15.0,-100.00,SSW,209,0.0,0.0,72,0.00,,,0.08,1.000000,,2013-03-17 10:03:00,
2013-03-17 05:13:00,-8.0,-15.0,-100.00,SSW,209,0.0,0.0,72,0.00,,,0.08,1.000000,,2013-03-17 10:13:00,
2013-03-17 05:23:00,-8.0,-15.0,-100.00,SSW,209,0.0,0.0,72,0.00,,,0.08,1.000000,,2013-03-17 10:23:00,
2013-03-17 05:33:00,-8.0,-15.0,-100.00,SSW,209,0.0,0.0,72,0.00,,,0.08,1.000000,,2013-03-17 10:33:00,
2013-03-17 06:02:00,-11.0,-18.0,-100.00,SSE,160,0.0,0.0,70,0.00,,,0.08,1.000000,,2013-03-17 11:02:00,
2013-03-17 06:12:00,-11.0,-18.0,-100.00,SSE,160,0.0,0.0,70,0.00,,,0.08,1.000000,,2013-03-17 11:12:00,
2013-03-17 06:22:00,-11.0,-18.0,-100.00,SSE,160,0.0,0.0,70,0.00,,,0.08,1.000000,,2013-03-17 11:22:00,
2013-03-17 06:32:00,-11.0,-18.0,-100.00,SSE,160,0.0,0.0,70,0.00,,,0.08,1.000000,,2013-03-17 11:32:00,
2013-03-17 07:02:00,-12.0,-19.0,-100.00,South,174,0.0,0.0,70,0.00,,,0.08,1.000000,,2013-03-17 12:02:00,
2013-03-17 07:12:00,-12.0,-19.0,-100.00,South,174,0.0,0.0,70,0.00,,,0.08,1.000000,,2013-03-17 12:12:00,
2013-03-17 07:22:00,-12.0,-19.0,-100.00,South,174,0.0,0.0,70,0.00,,,0.08,1.000000,,2013-03-17 12:22:00,
2013-03-17 07:32:00,-12.0,-19.0,-100.00,South,174,0.0,0.0,70,0.00,,,0.08,1.000000,,2013-03-17 12:32:00,
2013-03-17 08:02:00,-13.0,-20.0,-100.00,SE,139,0.0,0.0,68,0.00,,,0.08,7.000000,,2013-03-17 13:02:00,
2013-03-17 08:12:00,-13.0,-20.0,-100.00,SE,139,0.0,0.0,68,0.00,,,0.08,7.000000,,2013-03-17 13:12:00,
2013-03-17 08:22:00,-13.0,-20.0,-100.00,SE,139,0.0,0.0,68,0.00,,,0.08,7.000000,,2013-03-17 13:22:00,
2013-03-17 08:32:00,-13.0,-20.0,-100.00,SE,139,0.0,0.0,68,0.00,,,0.08,7.000000,,2013-03-17 13:32:00,
2013-03-17 09:02:00,-2.0,-11.0,-100.00,NE,39,0.0,0.0,63,0.00,,,0.08,103.000000,,2013-03-17 14:02:00,
2013-03-17 09:12:00,-2.0,-11.0,-100.00,NE,39,0.0,0.0,63,0.00,,,0.08,103.000000,,2013-03-17 14:12:00,
2013-03-17 09:22:00,-2.0,-11.0,-100.00,NE,39,0.0,0.0,63,0.00,,,0.08,103.000000,,2013-03-17 14:22:00,
2013-03-17 09:32:00,-2.0,-11.0,-100.00,NE,39,0.0,0.0,63,0.00,,,0.08,103.000000,,2013-03-17 14:32:00,
2013-03-17 10:02:00,12.0,-1.0,-100.00,ESE,108,4.0,11.0,55,0.00,,,0.08,297.000000,,2013-03-17 15:02:00,
2013-03-17 10:12:00,12.0,-1.0,-100.00,ESE,108,4.0,11.0,55,0.00,,,0.08,297.000000,,2013-03-17 15:12:00,
2013-03-17 10:23:00,12.0,-1.0,-100.00,ESE,108,4.0,11.0,55,0.00,,,0.08,297.000000,,2013-03-17 15:23:00,
2013-03-17 10:33:00,12.0,-1.0,-100.00,ESE,108,4.0,11.0,55,0.00,,,0.08,297.000000,,2013-03-17 15:33:00,
2013-03-17 11:03:00,16.0,-2.0,-100.00,ESE,112,5.0,9.0,44,0.00,,,0.05,466.000000,,2013-03-17 16:03:00,
2013-03-17 11:12:00,16.0,-2.0,-100.00,ESE,112,5.0,9.0,44,0.00,,,0.05,466.000000,,2013-03-17 16:12:00,
2013-03-17 11:23:00,16.0,-2.0,-100.00,ESE,112,5.0,9.0,44,0.00,,,0.05,466.000000,,2013-03-17 16:23:00,
2013-03-17 11:33:00,16.0,-2.0,-100.00,ESE,112,5.0,9.0,44,0.00,,,0.05,466.000000,,2013-03-17 16:33:00,
2013-03-17 12:02:00,20.0,-2.0,-100.00,South,172,5.0,13.0,37,0.00,,,0.01,609.000000,,2013-03-17 17:02:00,
2013-03-17 12:12:00,20.0,-2.0,-100.00,South,172,5.0,13.0,37,0.00,,,0.01,609.000000,,2013-03-17 17:12:00,
2013-03-17 12:22:00,20.0,-2.0,-100.00,South,172,5.0,13.0,37,0.00,,,0.01,609.000000,,2013-03-17 17:22:00,
2013-03-17 12:33:00,20.0,-2.0,-100.00,South,172,5.0,13.0,37,0.00,,,0.01,609.000000,,2013-03-17 17:33:00,
2013-03-17 13:02:00,24.0,-2.0,-100.00,SSW,208,5.0,13.0,31,0.00,,,0.01,703.000000,,2013-03-17 18:02:00,
2013-03-17 13:12:00,24.0,-2.0,-100.00,SSW,208,5.0,13.0,31,0.00,,,0.01,703.000000,,2013-03-17 18:12:00,
2013-03-17 13:22:00,24.0,-2.0,-100.00,SSW,208,5.0,13.0,31,0.00,,,0.01,703.000000,,2013-03-17 18:22:00,
2013-03-17 13:32:00,24.0,-2.0,-100.00,SSW,208,5.0,13.0,31,0.00,,,0.01,703.000000,,2013-03-17 18:32:00,
2013-03-17 14:02:00,27.0,-3.0,-100.00,South,169,6.0,14.0,26,0.00,,,0.01,741.000000,,2013-03-17 19:02:00,
2013-03-17 14:12:00,27.0,-3.0,-100.00,South,169,6.0,14.0,26,0.00,,,0.01,741.000000,,2013-03-17 19:12:00,
2013-03-17 14:22:00,27.0,-3.0,-100.00,South,169,6.0,14.0,26,0.00,,,0.01,741.000000,,2013-03-17 19:22:00,
2013-03-17 14:33:00,27.0,-3.0,-100.00,South,169,6.0,14.0,26,0.00,,,0.01,741.000000,,2013-03-17 19:33:00,
2013-03-17 15:02:00,30.0,-1.0,-100.00,South,169,5.0,12.0,26,0.00,,,0.00,707.000000,,2013-03-17 20:02:00,
2013-03-17 15:12:00,30.0,-1.0,-100.00,South,169,5.0,12.0,26,0.00,,,0.00,707.000000,,2013-03-17 20:12:00,
2013-03-17 15:22:00,30.0,-1.0,-100.00,South,169,5.0,12.0,26,0.00,,,0.00,707.000000,,2013-03-17 20:22:00,
2013-03-17 15:32:00,30.0,-1.0,-100.00,South,169,5.0,12.0,26,0.00,,,0.00,707.000000,,2013-03-17 20:32:00,
2013-03-17 16:03:00,31.0,-2.0,-100.00,SSW,200,5.0,11.0,24,0.00,,,0.00,596.000000,,2013-03-17 21:03:00,
2013-03-17 16:12:00,31.0,-2.0,-100.00,SSW,200,5.0,11.0,24,0.00,,,0.00,596.000000,,2013-03-17 21:12:00,
2013-03-17 16:22:00,31.0,-2.0,-100.00,SSW,200,5.0,11.0,24,0.00,,,0.00,596.000000,,2013-03-17 21:22:00,
2013-03-17 16:33:00,31.0,-2.0,-100.00,SSW,200,5.0,11.0,24,0.00,,,0.00,596.000000,,2013-03-17 21:33:00,
2013-03-17 17:03:00,30.0,-4.0,-100.00,South,180,6.0,14.0,22,0.00,,,0.00,494.000000,,2013-03-17 22:03:00,
2013-03-17 17:12:00,30.0,-4.0,-100.00,South,180,6.0,14.0,22,0.00,,,0.00,494.000000,,2013-03-17 22:12:00,
2013-03-17 17:23:00,30.0,-4.0,-100.00,South,180,6.0,14.0,22,0.00,,,0.00,494.000000,,2013-03-17 22:23:00,
2013-03-17 17:33:00,30.0,-4.0,-100.00,South,180,6.0,14.0,22,0.00,,,0.00,494.000000,,2013-03-17 22:33:00,
2013-03-17 18:03:00,29.0,-3.0,-100.00,South,181,6.0,13.0,24,0.00,,,0.00,333.000000,,2013-03-17 23:03:00,
2013-03-17 18:12:00,29.0,-3.0,-100.00,South,181,6.0,13.0,24,0.00,,,0.00,333.000000,,2013-03-17 23:12:00,
2013-03-17 18:22:00,29.0,-3.0,-100.00,South,181,6.0,13.0,24,0.00,,,0.00,333.000000,,2013-03-17 23:22:00,
2013-03-17 18:33:00,29.0,-3.0,-100.00,South,181,6.0,13.0,24,0.00,,,0.00,333.000000,,2013-03-17 23:33:00,
2013-03-17 19:03:00,24.0,-4.0,-100.00,South,188,5.0,12.0,28,0.00,,,0.00,91.000000,,2013-03-18 00:03:00,
2013-03-17 19:12:00,24.0,-4.0,-100.00,South,188,5.0,12.0,28,0.00,,,0.00,91.000000,,2013-03-18 00:12:00,
2013-03-17 19:22:00,24.0,-4.0,-100.00,South,188,5.0,12.0,28,0.00,,,0.00,91.000000,,2013-03-18 00:22:00,
2013-03-17 19:33:00,24.0,-4.0,-100.00,South,188,5.0,12.0,28,0.00,,,0.00,91.000000,,2013-03-18 00:33:00,
2013-03-17 20:02:00,19.0,-2.0,-100.00,South,191,2.0,6.0,39,0.00,,,0.00,7.000000,,2013-03-18 01:02:00,
2013-03-17 20:12:00,19.0,-2.0,-100.00,South,191,2.0,6.0,39,0.00,,,0.00,7.000000,,2013-03-18 01:12:00,
2013-03-17 20:22:00,19.0,-2.0,-100.00,South,191,2.0,6.0,39,0.00,,,0.00,7.000000,,2013-03-18 01:22:00,
2013-03-17 20:32:00,19.0,-2.0,-100.00,South,191,2.0,6.0,39,0.00,,,0.00,7.000000,,2013-03-18 01:32:00,
2013-03-17 21:02:00,19.0,-1.0,-100.00,South,189,3.0,7.0,41,0.00,,,0.00,1.000000,,2013-03-18 02:02:00,
2013-03-17 21:12:00,19.0,-1.0,-100.00,South,189,3.0,7.0,41,0.00,,,0.00,1.000000,,2013-03-18 02:12:00,
2013-03-17 21:22:00,19.0,-1.0,-100.00,South,189,3.0,7.0,41,0.00,,,0.00,1.000000,,2013-03-18 02:22:00,
2013-03-17 21:32:00,19.0,-1.0,-100.00,South,189,3.0,7.0,41,0.00,,,0.00,1.000000,,2013-03-18 02:32:00,
2013-03-17 22:03:00,19.0,3.0,-100.00,SSW,192,4.0,9.0,49,0.00,,,0.00,1.000000,,2013-03-18 03:03:00,
2013-03-17 22:11:00,19.0,3.0,-100.00,SSW,192,4.0,9.0,49,0.00,,,0.00,1.000000,,2013-03-18 03:11:00,
2013-03-17 22:22:00,19.0,3.0,-100.00,SSW,192,4.0,9.0,49,0.00,,,0.00,1.000000,,2013-03-18 03:22:00,
2013-03-17 22:33:00,19.0,3.0,-100.00,SSW,192,4.0,9.0,49,0.00,,,0.00,1.000000,,2013-03-18 03:33:00,
2013-03-17 23:03:00,18.0,5.0,-100.00,South,183,6.0,12.0,55,0.00,,,0.00,1.000000,,2013-03-18 04:03:00,
2013-03-17 23:13:00,18.0,5.0,-100.00,South,183,6.0,12.0,55,0.00,,,0.00,1.000000,,2013-03-18 04:13:00,
2013-03-17 23:23:00,18.0,5.0,-100.00,South,183,6.0,12.0,55,0.00,,,0.00,1.000000,,2013-03-18 04:23:00,
2013-03-17 23:33:00,18.0,5.0,-100.00,South,183,6.0,12.0,55,0.00,,,0.00,1.000000,,2013-03-18 04:33:00,